createdAt,value
2022-11-09T00:00:56.588Z,7.17
2022-11-09T00:03:25.466Z,7.70
2022-11-09T00:05:57.246Z,9.13
2022-11-09T00:08:24.819Z,11.73
2022-11-09T00:10:52.378Z,7.70
2022-11-09T00:13:20.446Z,7.47
2022-11-09T00:15:48.079Z,10.57
2022-11-09T00:18:15.796Z,8.53
2022-11-09T00:20:48.062Z,8.50
2022-11-09T00:23:16.637Z,10.00
2022-11-09T00:25:44.900Z,7.70
2022-11-09T00:28:12.471Z,9.87
2022-11-09T00:30:40.517Z,7.23
2022-11-09T00:33:08.720Z,7.70
2022-11-09T00:35:38.628Z,10.93
2022-11-09T00:38:08.013Z,8.77
2022-11-09T00:40:35.784Z,7.93
2022-11-09T00:43:05.566Z,9.00
2022-11-09T00:45:33.349Z,9.17
2022-11-09T00:48:00.904Z,10.27
2022-11-09T00:50:29.062Z,10.83
2022-11-09T00:52:56.662Z,13.80
2022-11-09T00:55:25.742Z,11.20
2022-11-09T00:57:53.844Z,6.90
2022-11-09T01:00:24.700Z,6.87
2022-11-09T01:02:54.031Z,7.60
2022-11-09T01:05:22.530Z,7.83
2022-11-09T01:07:50.261Z,10.23
2022-11-09T01:10:18.259Z,7.17
2022-11-09T01:12:48.858Z,8.30
2022-11-09T01:15:16.662Z,8.33
2022-11-09T01:17:44.274Z,8.60
2022-11-09T01:20:12.400Z,12.20
2022-11-09T01:22:40.161Z,7.80
2022-11-09T01:25:08.156Z,9.20
2022-11-09T01:27:36.513Z,15.07
2022-11-09T01:30:08.992Z,9.17
2022-11-09T01:32:36.975Z,12.20
2022-11-09T01:35:06.863Z,9.33
2022-11-09T01:37:34.699Z,12.60
2022-11-09T01:40:02.331Z,10.10
2022-11-09T01:42:36.293Z,10.73
2022-11-09T01:45:28.148Z,7.77
2022-11-09T01:47:59.839Z,8.00
2022-11-09T01:50:30.660Z,9.07
2022-11-09T01:52:58.623Z,7.30
2022-11-09T01:55:26.673Z,10.40
2022-11-09T01:57:55.510Z,10.13
2022-11-09T02:00:23.132Z,8.53
2022-11-09T02:02:54.392Z,6.70
2022-11-09T02:05:24.433Z,8.30
2022-11-09T02:07:54.399Z,8.17
2022-11-09T02:10:23.912Z,8.03
2022-11-09T02:12:52.703Z,7.37
2022-11-09T02:15:20.596Z,7.47
2022-11-09T02:17:51.033Z,9.50
2022-11-09T02:20:20.575Z,8.60
2022-11-09T02:22:48.183Z,8.73
2022-11-09T02:25:16.327Z,7.77
2022-11-09T02:27:44.761Z,8.30
2022-11-09T02:30:13.500Z,7.97
2022-11-09T02:32:41.579Z,10.37
2022-11-09T02:35:10.811Z,7.33
2022-11-09T02:37:42.993Z,7.30
2022-11-09T02:40:14.179Z,9.53
2022-11-09T02:42:41.870Z,8.00
2022-11-09T02:45:10.110Z,8.63
2022-11-09T02:47:39.673Z,8.70
2022-11-09T02:50:07.405Z,8.67
2022-11-09T02:52:35.130Z,7.17
2022-11-09T02:55:04.478Z,8.03
2022-11-09T02:57:32.212Z,6.90
2022-11-09T03:00:00.566Z,10.33
2022-11-09T03:02:28.590Z,7.70
2022-11-09T03:04:56.540Z,7.83
2022-11-09T03:07:24.380Z,6.57
2022-11-09T03:09:53.888Z,8.87
2022-11-09T03:12:30.558Z,8.80
2022-11-09T03:15:08.086Z,6.00
2022-11-09T03:17:36.866Z,7.87
2022-11-09T03:20:04.844Z,7.90
2022-11-09T03:22:32.918Z,6.93
2022-11-09T03:25:02.078Z,8.70
2022-11-09T03:27:31.063Z,8.57
2022-11-09T03:29:58.787Z,10.17
2022-11-09T03:32:26.537Z,7.60
2022-11-09T03:34:54.590Z,6.60
2022-11-09T03:37:22.349Z,6.60
2022-11-09T03:39:50.030Z,9.80
2022-11-09T03:42:17.686Z,9.50
2022-11-09T03:44:46.547Z,7.50
2022-11-09T03:47:14.042Z,7.93
2022-11-09T03:49:41.671Z,8.13
2022-11-09T03:52:09.534Z,8.80
2022-11-09T03:54:37.022Z,7.10
2022-11-09T03:57:04.832Z,8.23
2022-11-09T03:59:32.702Z,7.67
2022-11-09T04:02:01.843Z,8.00
2022-11-09T04:04:29.582Z,6.00
2022-11-09T04:06:57.271Z,7.53
2022-11-09T04:09:24.943Z,7.37
2022-11-09T04:11:52.446Z,8.43
2022-11-09T04:14:21.010Z,7.97
2022-11-09T04:16:48.560Z,8.93
2022-11-09T04:19:17.581Z,8.00
2022-11-09T04:21:45.276Z,12.73
2022-11-09T04:24:12.785Z,12.80
2022-11-09T04:26:40.357Z,9.77
2022-11-09T04:29:08.297Z,6.90
2022-11-09T04:31:35.817Z,7.60
2022-11-09T04:34:03.386Z,7.33
2022-11-09T04:36:33.157Z,9.00
2022-11-09T04:39:00.799Z,10.03
2022-11-09T04:41:28.540Z,10.00
2022-11-09T04:43:56.295Z,8.73
2022-11-09T04:46:23.999Z,8.50
2022-11-09T04:48:51.718Z,10.50
2022-11-09T04:51:19.637Z,8.40
2022-11-09T04:53:48.601Z,10.10
2022-11-09T04:56:16.571Z,8.20
2022-11-09T04:58:44.416Z,10.77
2022-11-09T05:01:13.150Z,11.60
2022-11-09T05:03:41.147Z,9.70
2022-11-09T05:06:22.829Z,10.00
2022-11-09T05:08:51.870Z,10.80
2022-11-09T05:11:19.364Z,8.10
2022-11-09T05:13:47.300Z,9.60
2022-11-09T05:16:15.001Z,8.50
2022-11-09T05:18:42.722Z,8.80
2022-11-09T05:21:10.615Z,8.93
2022-11-09T05:23:56.089Z,10.30
2022-11-09T05:26:25.394Z,9.63
2022-11-09T05:28:53.619Z,10.47
2022-11-09T05:31:21.126Z,16.60
2022-11-09T05:33:49.472Z,10.40
2022-11-09T05:36:17.145Z,9.37
2022-11-09T05:38:44.722Z,11.00
2022-11-09T05:41:12.550Z,10.50
2022-11-09T05:43:41.410Z,9.87
2022-11-09T05:46:09.101Z,10.47
2022-11-09T05:48:36.778Z,9.30
2022-11-09T05:51:04.636Z,11.40
2022-11-09T05:53:32.262Z,9.33
2022-11-09T05:56:02.892Z,9.93
2022-11-09T05:58:30.619Z,11.57
2022-11-09T06:01:00.444Z,12.30
2022-11-09T06:03:28.308Z,15.80
2022-11-09T06:05:55.802Z,13.03
2022-11-09T06:08:23.410Z,11.63
2022-11-09T06:10:50.937Z,14.57
2022-11-09T06:13:19.149Z,12.13
2022-11-09T06:15:53.150Z,13.13
2022-11-09T06:18:22.053Z,10.33
2022-11-09T06:20:51.728Z,10.53
2022-11-09T06:23:19.995Z,11.33
2022-11-09T06:25:48.693Z,12.97
2022-11-09T06:28:16.403Z,10.50
2022-11-09T06:30:44.124Z,10.63
2022-11-09T06:33:11.779Z,10.77
2022-11-09T06:35:40.653Z,11.60
2022-11-09T06:38:09.892Z,11.50
2022-11-09T06:40:37.830Z,14.80
2022-11-09T06:43:05.388Z,16.07
2022-11-09T06:45:33.087Z,11.73
2022-11-09T06:48:01.355Z,11.83
2022-11-09T06:50:29.976Z,11.50
2022-11-09T06:52:59.906Z,12.63
2022-11-09T06:55:28.387Z,11.00
2022-11-09T06:57:56.285Z,15.33
2022-11-09T07:00:24.516Z,11.30
2022-11-09T07:02:52.179Z,15.60
2022-11-09T07:05:19.692Z,14.30
2022-11-09T07:07:47.820Z,12.00
2022-11-09T07:10:16.977Z,12.50
2022-11-09T07:12:45.012Z,12.00
2022-11-09T07:15:13.245Z,15.63
2022-11-09T07:17:41.250Z,17.03
2022-11-09T07:20:09.754Z,13.43
2022-11-09T07:22:39.506Z,11.77
2022-11-09T07:25:08.281Z,23.83
2022-11-09T07:27:37.204Z,16.43
2022-11-09T07:30:05.669Z,15.90
2022-11-09T07:33:07.449Z,15.43
2022-11-09T07:35:22.518Z,18.90
2022-11-09T07:37:49.933Z,16.40
2022-11-09T07:40:17.790Z,20.57
2022-11-09T07:42:46.739Z,21.40
2022-11-09T07:45:14.434Z,21.60
2022-11-09T07:47:41.883Z,28.97
2022-11-09T07:50:10.289Z,17.70
2022-11-09T07:52:37.933Z,19.23
2022-11-09T07:55:05.940Z,15.70
2022-11-09T07:57:33.631Z,17.73
2022-11-09T08:00:02.778Z,14.97
2022-11-09T08:02:39.270Z,14.80
2022-11-09T08:05:07.377Z,16.10
2022-11-09T08:07:35.227Z,14.97
2022-11-09T08:10:03.569Z,18.87
2022-11-09T08:12:36.720Z,14.97
2022-11-09T08:15:07.120Z,18.00
2022-11-09T08:17:34.891Z,15.70
2022-11-09T08:20:02.418Z,17.57
2022-11-09T08:22:30.562Z,17.80
2022-11-09T08:24:59.447Z,19.77
2022-11-09T08:27:26.966Z,17.30
2022-11-09T08:29:54.707Z,14.10
2022-11-09T08:32:23.568Z,17.40
2022-11-09T08:34:51.125Z,19.10
2022-11-09T08:37:19.056Z,17.53
2022-11-09T08:39:46.562Z,16.83
2022-11-09T08:42:14.237Z,17.93
2022-11-09T08:44:42.203Z,16.00
2022-11-09T08:47:09.930Z,20.93
2022-11-09T08:49:38.766Z,17.00
2022-11-09T08:52:06.644Z,21.43
2022-11-09T08:54:34.382Z,27.57
2022-11-09T08:57:02.229Z,15.20
2022-11-09T08:59:29.968Z,13.90
2022-11-09T09:01:57.637Z,14.87
2022-11-09T09:04:25.350Z,16.03
2022-11-09T09:06:54.707Z,15.40
2022-11-09T09:09:22.605Z,17.60
2022-11-09T09:11:50.140Z,14.53
2022-11-09T09:14:18.864Z,14.20
2022-11-09T09:16:47.277Z,14.10
2022-11-09T09:19:14.966Z,12.37
2022-11-09T09:21:42.736Z,16.40
2022-11-09T09:24:11.624Z,14.70
2022-11-09T09:26:40.832Z,13.23
2022-11-09T09:29:08.936Z,12.97
2022-11-09T09:31:36.418Z,14.20
2022-11-09T09:34:05.070Z,13.87
2022-11-09T09:36:33.075Z,19.23
2022-11-09T09:39:00.708Z,13.50
2022-11-09T09:41:32.309Z,11.73
2022-11-09T09:44:01.159Z,15.67
2022-11-09T09:46:31.375Z,15.03
2022-11-09T09:49:00.883Z,11.57
2022-11-09T09:51:30.737Z,15.40
2022-11-09T09:54:00.334Z,15.77
2022-11-09T09:56:29.963Z,13.23
2022-11-09T09:59:00.026Z,15.47
2022-11-09T10:01:30.756Z,16.53
2022-11-09T10:03:58.508Z,15.60
2022-11-09T10:06:41.324Z,13.63
2022-11-09T10:09:16.467Z,10.87
2022-11-09T10:11:47.909Z,10.97
2022-11-09T10:14:42.610Z,10.60
2022-11-09T10:17:18.167Z,15.30
2022-11-09T10:19:52.362Z,13.27
2022-11-09T10:22:23.448Z,15.27
2022-11-09T10:25:18.404Z,12.50
2022-11-09T10:27:44.055Z,11.77
2022-11-09T10:30:13.966Z,12.30
2022-11-09T10:32:43.590Z,10.70
2022-11-09T10:35:16.439Z,11.07
2022-11-09T10:37:46.502Z,10.97
2022-11-09T10:40:18.798Z,15.70
2022-11-09T10:43:07.813Z,13.57
2022-11-09T10:45:59.264Z,15.67
2022-11-09T10:48:48.769Z,11.17
2022-11-09T10:51:36.735Z,11.80
2022-11-09T10:54:24.576Z,10.27
2022-11-09T10:57:12.994Z,9.80
2022-11-09T10:59:59.610Z,13.13
2022-11-09T11:02:47.060Z,10.47
2022-11-09T11:05:35.804Z,11.53
2022-11-09T11:08:23.776Z,9.00
2022-11-09T11:11:37.713Z,9.37
2022-11-09T11:14:28.125Z,13.10
2022-11-09T11:17:24.678Z,8.77
2022-11-09T11:20:30.227Z,9.53
2022-11-09T11:23:19.315Z,7.93
2022-11-09T11:34:59.725Z,9.37
2022-11-09T11:37:52.344Z,12.80
2022-11-09T11:40:44.106Z,9.33
2022-11-09T11:43:35.802Z,15.67
2022-11-09T11:46:26.578Z,12.00
2022-11-09T11:49:34.226Z,11.97
2022-11-09T11:52:24.557Z,12.27
2022-11-09T11:55:23.098Z,9.93
2022-11-09T11:58:19.779Z,8.77
2022-11-09T12:01:13.492Z,8.47
2022-11-09T12:04:04.196Z,9.00
2022-11-09T12:07:05.636Z,12.70
2022-11-09T12:10:07.930Z,11.80
2022-11-09T12:13:00.749Z,18.73
2022-11-09T12:15:53.429Z,9.50
2022-11-09T12:18:44.262Z,13.10
2022-11-09T12:25:47.730Z,19.10
2022-11-09T12:28:48.316Z,10.47
2022-11-09T12:31:42.808Z,7.37
2022-11-09T12:34:33.063Z,9.30
2022-11-09T12:37:22.476Z,9.87
2022-11-09T12:40:16.752Z,10.77
2022-11-09T12:43:05.869Z,9.83
2022-11-09T12:45:53.806Z,8.80
2022-11-09T12:48:42.173Z,7.77
2022-11-09T12:51:29.106Z,9.10
2022-11-09T12:54:15.377Z,7.67
2022-11-09T12:57:03.155Z,8.73
2022-11-09T12:59:50.220Z,11.10
2022-11-09T13:02:38.116Z,8.63
2022-11-09T13:05:30.351Z,10.70
2022-11-09T13:08:18.552Z,9.00
2022-11-09T13:11:18.765Z,8.03
2022-11-09T13:14:23.452Z,10.33
2022-11-09T13:17:28.673Z,8.50
2022-11-09T13:20:55.542Z,7.83
2022-11-09T13:24:03.864Z,7.00
2022-11-09T13:26:58.804Z,8.47
2022-11-09T13:29:55.105Z,11.67
2022-11-09T13:33:03.061Z,8.57
2022-11-09T13:36:22.819Z,7.87
2022-11-09T13:39:28.919Z,6.60
2022-11-09T13:42:27.680Z,7.30
2022-11-09T13:45:18.184Z,7.30
2022-11-09T13:48:05.820Z,8.30
2022-11-09T13:50:56.358Z,9.53
2022-11-09T13:53:53.093Z,9.07
2022-11-09T13:56:42.017Z,9.13
2022-11-09T13:59:30.215Z,7.53
2022-11-09T14:02:19.430Z,7.20
2022-11-09T14:05:06.357Z,7.70
2022-11-09T14:07:53.957Z,10.10
2022-11-09T14:10:46.631Z,6.83
2022-11-09T14:13:46.943Z,11.83
2022-11-09T14:16:38.766Z,9.23
2022-11-09T14:19:28.576Z,10.70
2022-11-09T14:22:16.993Z,9.93
2022-11-09T14:25:05.763Z,8.13
2022-11-09T14:27:57.475Z,11.10
2022-11-09T14:30:46.326Z,10.93
2022-11-09T14:33:34.783Z,8.83
2022-11-09T14:36:21.165Z,10.27
2022-11-09T14:39:17.758Z,7.70
2022-11-09T14:42:06.357Z,9.37
2022-11-09T14:44:52.955Z,9.93
2022-11-09T14:47:44.308Z,13.20
2022-11-09T14:50:32.612Z,8.33
2022-11-09T14:53:22.305Z,15.53
2022-11-09T14:56:12.597Z,10.23
2022-11-09T14:58:58.936Z,22.83
2022-11-09T15:01:57.198Z,8.90
2022-11-09T15:04:55.975Z,8.63
2022-11-09T15:07:46.797Z,15.60
2022-11-09T15:10:33.870Z,9.67
2022-11-09T15:13:21.519Z,10.80
2022-11-09T15:16:08.678Z,10.07
2022-11-09T15:18:56.030Z,11.30
2022-11-09T15:21:43.773Z,11.50
2022-11-09T15:24:30.469Z,10.50
2022-11-09T15:27:32.963Z,12.70
2022-11-09T15:30:29.765Z,14.27
2022-11-09T15:33:21.318Z,11.23
2022-11-09T15:36:24.200Z,16.83
2022-11-09T15:39:15.684Z,16.13
2022-11-09T15:42:02.278Z,12.87
2022-11-09T15:44:52.161Z,17.00
2022-11-09T15:47:39.420Z,16.93
2022-11-09T15:50:28.143Z,16.60
2022-11-09T15:53:15.601Z,12.73
2022-11-09T15:56:03.067Z,13.80
2022-11-09T15:58:52.695Z,14.53
2022-11-09T16:01:40.039Z,12.80
2022-11-09T16:04:26.878Z,17.43
2022-11-09T16:07:15.300Z,12.57
2022-11-09T16:10:01.448Z,12.33
2022-11-09T16:12:49.713Z,17.10
2022-11-09T16:15:37.444Z,13.73
2022-11-09T16:18:26.086Z,14.83
2022-11-09T16:21:14.216Z,14.50
2022-11-09T16:24:00.409Z,12.20
2022-11-09T16:26:46.520Z,17.00
2022-11-09T16:29:34.716Z,20.43
2022-11-09T16:32:21.931Z,17.73
2022-11-09T16:35:26.205Z,17.10
2022-11-09T16:38:14.453Z,15.83
2022-11-09T16:41:01.433Z,16.40
2022-11-09T16:43:48.910Z,17.67
2022-11-09T16:46:36.395Z,13.90
2022-11-09T16:49:23.130Z,16.60
2022-11-09T16:52:09.359Z,15.57
2022-11-09T16:54:56.057Z,15.23
2022-11-09T16:57:42.357Z,16.13
2022-11-09T17:00:48.783Z,17.33
2022-11-09T17:03:37.701Z,20.17
2022-11-09T17:06:24.352Z,17.97
2022-11-09T17:09:10.848Z,17.50
2022-11-09T17:11:58.815Z,17.17
2022-11-09T17:14:45.276Z,15.30
2022-11-09T17:17:31.909Z,22.80
2022-11-09T17:20:19.659Z,19.60
2022-11-09T17:23:06.589Z,16.20
2022-11-09T17:25:57.893Z,20.13
2022-11-09T17:28:44.673Z,15.73
2022-11-09T17:31:31.282Z,16.87
2022-11-09T17:34:18.314Z,17.40
2022-11-09T17:37:05.993Z,17.93
2022-11-09T17:39:52.473Z,20.70
2022-11-09T17:42:39.799Z,17.50
2022-11-09T17:45:26.299Z,20.03
2022-11-09T17:48:12.374Z,32.40
2022-11-09T17:50:59.162Z,21.83
2022-11-09T17:53:46.893Z,24.03
2022-11-09T17:56:34.249Z,20.90
2022-11-09T17:59:20.397Z,20.00
2022-11-09T18:02:07.512Z,19.80
2022-11-09T18:04:53.613Z,20.10
2022-11-09T18:07:40.538Z,22.27
2022-11-09T18:10:28.242Z,21.47
2022-11-09T18:13:14.762Z,17.20
2022-11-09T18:16:05.311Z,16.00
2022-11-09T18:18:51.726Z,18.77
2022-11-09T18:21:38.321Z,28.83
2022-11-09T18:24:24.954Z,17.60
2022-11-09T18:27:12.661Z,19.73
2022-11-09T18:29:59.009Z,19.10
2022-11-09T18:32:45.032Z,20.20
2022-11-09T18:35:31.585Z,17.10
2022-11-09T18:38:20.240Z,18.93
2022-11-09T18:41:08.490Z,13.60
2022-11-09T18:43:57.748Z,16.30
2022-11-09T18:46:44.264Z,16.93
2022-11-09T18:49:30.699Z,19.00
2022-11-09T18:52:17.738Z,14.10
2022-11-09T18:55:05.014Z,12.73
2022-11-09T18:57:51.698Z,13.83
2022-11-09T19:00:39.810Z,16.40
2022-11-09T19:03:26.733Z,15.33
2022-11-09T19:06:14.622Z,12.10
2022-11-09T19:09:18.215Z,12.70
2022-11-09T19:12:06.586Z,13.00
2022-11-09T19:14:53.168Z,19.43
2022-11-09T19:17:41.234Z,23.60
2022-11-09T19:20:27.851Z,18.60
2022-11-09T19:23:15.061Z,16.93
2022-11-09T19:26:03.058Z,21.37
2022-11-09T19:28:49.373Z,18.70
2022-11-09T19:31:36.655Z,14.37
2022-11-09T19:34:24.021Z,11.80
2022-11-09T19:37:11.402Z,11.20
2022-11-09T19:39:57.555Z,14.60
2022-11-09T19:42:43.971Z,15.23
2022-11-09T19:45:30.273Z,19.63
2022-11-09T19:48:17.159Z,17.87
2022-11-09T19:51:05.424Z,14.17
2022-11-09T19:53:52.611Z,19.10
2022-11-09T19:56:39.061Z,17.27
2022-11-09T19:59:25.376Z,16.17
2022-11-09T20:02:12.038Z,16.93
2022-11-09T20:04:59.300Z,22.43
2022-11-09T20:07:46.789Z,23.63
2022-11-09T20:10:36.504Z,19.03
2022-11-09T20:13:24.309Z,22.10
2022-11-09T20:16:11.787Z,20.43
2022-11-09T20:18:58.597Z,17.30
2022-11-09T20:21:45.597Z,19.30
2022-11-09T20:24:33.564Z,19.50
2022-11-09T20:27:20.472Z,15.50
2022-11-09T20:30:07.518Z,24.23
2022-11-09T20:32:53.929Z,16.90
2022-11-09T20:35:45.722Z,17.70
2022-11-09T20:38:33.202Z,18.40
2022-11-09T20:41:25.215Z,19.03
2022-11-09T20:44:12.557Z,19.67
2022-11-09T20:46:58.793Z,17.50
2022-11-09T20:49:47.223Z,17.40
2022-11-09T20:52:33.593Z,19.23
2022-11-09T20:55:20.457Z,17.53
2022-11-09T20:58:11.295Z,13.90
2022-11-09T21:01:02.321Z,14.47
2022-11-09T21:03:50.746Z,15.73
2022-11-09T21:06:37.550Z,15.10
2022-11-09T21:09:24.053Z,15.57
2022-11-09T21:12:22.562Z,21.97
2022-11-09T21:15:13.958Z,18.93
2022-11-09T21:18:00.554Z,17.97
2022-11-09T21:20:47.038Z,22.00
2022-11-09T21:23:51.485Z,20.37
2022-11-09T21:26:55.588Z,18.20
2022-11-09T21:29:51.157Z,17.80
2022-11-09T21:32:38.886Z,15.10
2022-11-09T21:35:25.210Z,15.47
2022-11-09T21:38:11.768Z,14.90
2022-11-09T21:41:05.355Z,15.47
2022-11-09T21:43:53.824Z,15.37
2022-11-09T21:46:40.930Z,25.43
2022-11-09T21:49:28.838Z,12.90
2022-11-09T21:52:17.161Z,17.63
2022-11-09T21:55:03.685Z,19.83
2022-11-09T21:57:51.533Z,13.67
2022-11-09T22:00:38.067Z,14.03
2022-11-09T22:03:24.715Z,12.00
2022-11-09T22:06:12.731Z,11.60
2022-11-09T22:08:59.259Z,12.77
2022-11-09T22:12:03.590Z,11.90
2022-11-09T22:15:07.739Z,11.77
2022-11-09T22:17:54.203Z,11.63
2022-11-09T22:20:55.066Z,11.37
2022-11-09T22:23:43.164Z,12.33
2022-11-09T22:26:30.756Z,12.37
2022-11-09T22:29:16.839Z,11.23
2022-11-09T22:32:03.346Z,13.90
2022-11-09T22:34:49.579Z,11.47
2022-11-09T22:37:36.409Z,11.90
2022-11-09T22:40:24.065Z,12.17
2022-11-09T22:43:11.003Z,12.33
2022-11-09T22:45:57.358Z,12.43
2022-11-09T22:48:45.143Z,15.67
2022-11-09T22:51:31.562Z,8.27
2022-11-09T22:54:18.314Z,9.63
2022-11-09T22:57:06.225Z,8.40
2022-11-09T22:59:52.475Z,8.77
2022-11-09T23:02:38.981Z,14.63
2022-11-09T23:05:25.737Z,9.70
2022-11-09T23:08:11.889Z,15.53
2022-11-09T23:10:59.381Z,9.83
2022-11-09T23:13:48.830Z,9.67
2022-11-09T23:16:35.479Z,8.80
2022-11-09T23:19:20.513Z,11.40
2022-11-09T23:22:07.381Z,8.57
2022-11-09T23:25:11.206Z,12.57
2022-11-09T23:27:58.053Z,13.03
2022-11-09T23:30:45.847Z,11.80
2022-11-09T23:33:32.849Z,8.50
2022-11-09T23:36:19.559Z,7.87
2022-11-09T23:39:05.708Z,11.77
2022-11-09T23:41:52.072Z,8.37
2022-11-09T23:44:39.016Z,14.23
2022-11-09T23:47:26.638Z,11.93
2022-11-09T23:50:13.538Z,10.20
2022-11-09T23:53:00.007Z,12.03
2022-11-09T23:55:46.548Z,9.20
2022-11-09T23:58:33.375Z,9.30
